createdAt,value
2018-12-10T00:01:17.004Z,100176.52
2018-12-10T00:03:43.144Z,100175.48
2018-12-10T00:06:09.153Z,100180.88
2018-12-10T00:08:35.191Z,100191.14
2018-12-10T00:11:01.196Z,100187.16
2018-12-10T00:13:27.212Z,100192.33
2018-12-10T00:15:53.156Z,100189.41
2018-12-10T00:18:19.157Z,100201.24
2018-12-10T00:20:45.100Z,100196.70
2018-12-10T00:23:11.109Z,100203.78
2018-12-10T00:25:37.251Z,100210.53
2018-12-10T00:28:03.257Z,100217.03
2018-12-10T00:30:29.304Z,100221.09
2018-12-10T00:32:55.293Z,100217.13
2018-12-10T00:35:21.245Z,100220.63
2018-12-10T00:37:47.248Z,100218.25
2018-12-10T00:40:13.292Z,100227.45
2018-12-10T00:42:39.292Z,100225.07
2018-12-10T00:45:05.340Z,100231.02
2018-12-10T00:47:31.441Z,100233.49
2018-12-10T00:49:57.484Z,100238.67
2018-12-10T00:52:23.516Z,100238.98
2018-12-10T00:54:49.547Z,100249.79
2018-12-10T00:57:15.540Z,100248.18
2018-12-10T00:59:41.554Z,100257.41
2018-12-10T01:02:07.612Z,100268.22
2018-12-10T01:04:33.604Z,100268.53
2018-12-10T01:06:59.644Z,100271.78
2018-12-10T01:09:25.648Z,100278.30
2018-12-10T01:11:51.789Z,100282.90
2018-12-10T01:14:17.792Z,100281.87
2018-12-10T01:16:43.740Z,100282.98
2018-12-10T01:19:09.732Z,100296.23
2018-12-10T01:21:35.676Z,100295.20
2018-12-10T01:24:01.680Z,100297.09
2018-12-10T01:26:27.616Z,100304.97
2018-12-10T01:28:53.624Z,100317.35
2018-12-10T01:31:19.573Z,100325.00
2018-12-10T01:33:45.573Z,100334.67
2018-12-10T01:36:11.608Z,100334.67
2018-12-10T01:38:37.616Z,100326.34
2018-12-10T01:41:03.676Z,100325.86
2018-12-10T01:43:29.658Z,100322.04
2018-12-10T01:45:55.601Z,100321.00
2018-12-10T01:48:21.612Z,100328.30
2018-12-10T01:50:47.649Z,100332.35
2018-12-10T01:53:13.650Z,100342.66
2018-12-10T01:55:39.705Z,100339.38
2018-12-10T01:58:05.705Z,100345.10
2018-12-10T02:00:31.740Z,100341.37
2018-12-10T02:02:57.884Z,100348.69
2018-12-10T02:05:23.876Z,100355.45
2018-12-10T02:07:49.813Z,100373.00
2018-12-10T02:10:15.812Z,100376.78
2018-12-10T02:12:41.852Z,100368.19
2018-12-10T02:15:07.856Z,100374.40
2018-12-10T02:17:33.893Z,100378.99
2018-12-10T02:19:59.904Z,100378.45
2018-12-10T02:22:26.067Z,100380.11
2018-12-10T02:24:52.049Z,100385.02
2018-12-10T02:27:17.993Z,100385.02
2018-12-10T02:29:43.992Z,100386.14
2018-12-10T02:32:09.944Z,100381.55
2018-12-10T02:34:35.932Z,100388.03
2018-12-10T02:37:01.856Z,100388.61
2018-12-10T02:39:27.902Z,100383.50
2018-12-10T02:41:53.901Z,100388.12
2018-12-10T02:44:19.869Z,100388.66
2018-12-10T02:46:45.847Z,100390.82
2018-12-10T02:49:11.885Z,100394.61
2018-12-10T02:51:37.910Z,100393.26
2018-12-10T02:54:04.041Z,100398.20
2018-12-10T02:56:30.041Z,100400.89
2018-12-10T02:58:56.084Z,100409.54
2018-12-10T03:01:22.090Z,100411.44
2018-12-10T03:03:48.137Z,100409.85
2018-12-10T03:06:14.133Z,100410.94
2018-12-10T03:08:40.317Z,100412.29
2018-12-10T03:11:06.287Z,100414.76
2018-12-10T03:13:32.304Z,100425.55
2018-12-10T03:15:58.345Z,100425.33
2018-12-10T03:18:24.352Z,100441.52
2018-12-10T03:20:52.743Z,100454.21
2018-12-10T03:23:18.351Z,100454.76
2018-12-10T03:25:44.580Z,100447.78
2018-12-10T03:28:10.593Z,100442.14
2018-12-10T03:30:36.657Z,100445.93
2018-12-10T03:33:02.792Z,100438.38
2018-12-10T03:35:28.917Z,100448.63
2018-12-10T03:37:54.894Z,100453.80
2018-12-10T03:40:21.041Z,100451.10
2018-12-10T03:42:47.269Z,100450.84
2018-12-10T03:45:13.388Z,100446.78
2018-12-10T03:47:39.496Z,100439.81
2018-12-10T03:50:05.864Z,100446.55
2018-12-10T03:52:31.868Z,100445.20
2018-12-10T03:54:57.996Z,100449.25
2018-12-10T03:57:24.102Z,100443.13
2018-12-10T03:59:50.112Z,100449.88
2018-12-10T04:02:16.068Z,100461.76
2018-12-10T04:04:42.060Z,100460.41
2018-12-10T04:07:08.228Z,100467.42
2018-12-10T04:09:34.208Z,100476.60
2018-12-10T04:12:00.253Z,100472.32
2018-12-10T04:14:26.309Z,100480.42
2018-12-10T04:16:52.475Z,100479.38
2018-12-10T04:19:18.604Z,100488.83
2018-12-10T04:21:44.589Z,100480.73
2018-12-10T04:24:10.665Z,100481.05
2018-12-10T04:26:36.720Z,100487.25
2018-12-10T04:29:02.805Z,100490.72
2018-12-10T04:31:28.740Z,100493.19
2018-12-10T04:33:54.749Z,100488.91
2018-12-10T04:36:20.802Z,100488.91
2018-12-10T04:38:46.793Z,100490.56
2018-12-10T04:41:12.940Z,100487.60
2018-12-10T04:43:38.941Z,100491.91
2018-12-10T04:46:04.984Z,100491.65
2018-12-10T04:48:31.013Z,100502.21
2018-12-10T04:50:57.008Z,100494.66
2018-12-10T04:53:22.953Z,100506.80
2018-12-10T04:55:48.961Z,100506.80
2018-12-10T04:58:15.113Z,100520.30
2018-12-10T05:00:41.112Z,100521.41
2018-12-10T05:03:07.140Z,100522.19
2018-12-10T05:05:33.144Z,100520.06
2018-12-10T05:07:59.088Z,100522.49
2018-12-10T05:10:25.096Z,100535.45
2018-12-10T05:12:51.149Z,100537.91
2018-12-10T05:15:17.141Z,100530.36
2018-12-10T05:17:43.185Z,100535.52
2018-12-10T05:20:09.185Z,100539.26
2018-12-10T05:22:35.232Z,100545.20
2018-12-10T05:25:01.239Z,100528.63
2018-12-10T05:27:27.488Z,100544.66
2018-12-10T05:29:53.481Z,100555.19
2018-12-10T05:32:19.502Z,100555.49
2018-12-10T05:34:45.552Z,100559.55
2018-12-10T05:37:11.672Z,100560.89
2018-12-10T05:39:38.544Z,100567.91
2018-12-10T05:42:04.829Z,100572.80
2018-12-10T05:44:30.869Z,100566.28
2018-12-10T05:46:56.890Z,100571.99
2018-12-10T05:49:23.016Z,100579.28
2018-12-10T05:51:49.024Z,100574.45
2018-12-10T05:54:15.068Z,100572.30
2018-12-10T05:56:41.064Z,100575.00
2018-12-10T05:59:07.005Z,100574.77
2018-12-10T06:01:33.016Z,100582.86
2018-12-10T06:03:59.055Z,100583.40
2018-12-10T06:06:25.057Z,100580.16
2018-12-10T06:08:50.997Z,100581.01
2018-12-10T06:11:17.001Z,100576.16
2018-12-10T06:13:43.060Z,100576.70
2018-12-10T06:16:09.053Z,100579.39
2018-12-10T06:18:35.078Z,100585.36
2018-12-10T06:21:01.112Z,100587.48
2018-12-10T06:23:27.112Z,100592.65
2018-12-10T06:25:53.057Z,100595.89
2018-12-10T06:28:19.056Z,100593.49
2018-12-10T06:30:45.000Z,100597.55
2018-12-10T06:33:11.000Z,100594.84
2018-12-10T06:35:36.950Z,100586.52
2018-12-10T06:38:02.940Z,100600.00
2018-12-10T06:40:28.883Z,100597.31
2018-12-10T06:42:55.094Z,100601.89
2018-12-10T06:45:21.132Z,100607.30
2018-12-10T06:47:47.149Z,100608.41
2018-12-10T06:50:13.180Z,100617.05
2018-12-10T06:52:39.188Z,100638.93
2018-12-10T06:55:05.470Z,100661.05
2018-12-10T06:57:31.540Z,100662.57
2018-12-10T06:59:57.576Z,100646.11
2018-12-10T07:02:23.585Z,100639.44
2018-12-10T07:04:49.596Z,100628.95
2018-12-10T07:07:15.550Z,100631.64
2018-12-10T07:09:41.652Z,100627.09
2018-12-10T07:12:07.708Z,100632.72
2018-12-10T07:14:33.697Z,100634.95
2018-12-10T07:16:59.760Z,100638.02
2018-12-10T07:19:25.744Z,100641.61
2018-12-10T07:21:51.786Z,100640.35
2018-12-10T07:24:17.796Z,100653.13
2018-12-10T07:26:43.840Z,100658.58
2018-12-10T07:29:09.836Z,100666.02
2018-12-10T07:31:35.776Z,100667.50
2018-12-10T07:34:01.784Z,100674.63
2018-12-10T07:36:27.817Z,100664.79
2018-12-10T07:41:19.352Z,100675.59
2018-12-10T07:43:45.356Z,100670.07
2018-12-10T07:46:11.340Z,100685.55
2018-12-10T07:48:37.300Z,100675.66
2018-12-10T07:51:03.220Z,100683.77
2018-12-10T07:53:29.156Z,100683.63
2018-12-10T07:55:55.173Z,100676.87
2018-12-10T07:58:21.313Z,100682.92
2018-12-10T08:00:47.317Z,100688.94
2018-12-10T08:03:13.480Z,100695.08
2018-12-10T08:05:39.470Z,100694.23
2018-12-10T08:08:05.505Z,100695.84
2018-12-10T08:10:31.513Z,100697.08
2018-12-10T08:12:57.556Z,100691.80
2018-12-10T08:15:23.552Z,100689.02
2018-12-10T08:17:49.702Z,100713.37
2018-12-10T08:20:15.804Z,100714.80
2018-12-10T08:22:41.740Z,100724.86
2018-12-10T08:25:07.749Z,100725.48
2018-12-10T08:27:33.796Z,100737.25
2018-12-10T08:29:59.797Z,100722.34
2018-12-10T08:32:25.837Z,100730.91
2018-12-10T08:34:51.841Z,100744.81
2018-12-10T08:37:17.881Z,100741.08
2018-12-10T08:39:43.885Z,100735.98
2018-12-10T08:42:09.848Z,100720.67
2018-12-10T08:44:35.829Z,100736.38
2018-12-10T08:47:01.850Z,100739.20
2018-12-10T08:49:27.788Z,100744.25
2018-12-10T08:51:53.797Z,100746.95
2018-12-10T08:54:19.836Z,100746.86
2018-12-10T08:56:45.840Z,100753.84
2018-12-10T08:59:11.788Z,100761.11
2018-12-10T09:01:37.797Z,100768.09
2018-12-10T09:04:03.833Z,100772.11
2018-12-10T09:06:29.833Z,100783.97
2018-12-10T09:08:55.783Z,100785.81
2018-12-10T09:11:21.785Z,100772.53
2018-12-10T09:13:47.822Z,100768.16
2018-12-10T09:16:13.817Z,100772.22
2018-12-10T09:18:39.768Z,100775.19
2018-12-10T09:21:05.768Z,100775.10
2018-12-10T09:23:31.813Z,100776.14
2018-12-10T09:25:57.916Z,100779.99
2018-12-10T09:28:23.952Z,100778.41
2018-12-10T09:30:49.959Z,100782.83
2018-12-10T09:33:15.892Z,100791.86
2018-12-10T09:35:41.905Z,100783.66
2018-12-10T09:38:07.941Z,100787.98
2018-12-10T09:40:34.048Z,100803.95
2018-12-10T09:43:00.064Z,100838.05
2018-12-10T09:45:26.013Z,100839.39
2018-12-10T09:47:52.020Z,100847.52
2018-12-10T09:50:18.071Z,100837.78
2018-12-10T09:52:44.069Z,100825.60
2018-12-10T09:55:10.112Z,100815.59
2018-12-10T09:57:36.104Z,100810.17
2018-12-10T10:00:02.312Z,100799.66
2018-12-10T10:02:28.256Z,100791.55
2018-12-10T10:04:54.198Z,100779.59
2018-12-10T10:07:28.242Z,100786.63
2018-12-10T10:09:48.210Z,100778.33
2018-12-10T10:12:14.196Z,100783.97
2018-12-10T10:14:40.236Z,100773.46
2018-12-10T10:17:06.233Z,100770.03
2018-12-10T10:19:32.177Z,100779.00
2018-12-10T10:21:58.180Z,100780.36
2018-12-10T10:24:24.132Z,100780.17
2018-12-10T10:26:50.124Z,100783.19
2018-12-10T10:29:16.140Z,100785.13
2018-12-10T10:31:42.088Z,100787.88
2018-12-10T10:34:08.088Z,100786.03
2018-12-10T10:36:34.072Z,100792.87
2018-12-10T10:39:00.028Z,100795.70
2018-12-10T10:41:31.253Z,100777.31
2018-12-10T10:43:53.921Z,100764.64
2018-12-10T10:46:19.864Z,100762.25
2018-12-10T10:48:45.973Z,100768.47
2018-12-10T10:51:12.122Z,100762.95
2018-12-10T10:53:38.219Z,100759.75
2018-12-10T10:56:04.277Z,100761.11
2018-12-10T10:58:30.293Z,100761.11
2018-12-10T11:00:56.296Z,100756.19
2018-12-10T11:03:22.336Z,100756.42
2018-12-10T11:05:48.362Z,100759.63
2018-12-10T11:08:14.376Z,100753.09
2018-12-10T11:10:40.380Z,100754.71
2018-12-10T11:13:06.531Z,100759.23
2018-12-10T11:15:32.632Z,100749.53
2018-12-10T11:17:58.569Z,100747.55
2018-12-10T11:20:24.573Z,100749.17
2018-12-10T11:22:50.516Z,100749.77
2018-12-10T11:25:16.521Z,100754.40
2018-12-10T11:27:42.563Z,100751.20
2018-12-10T11:30:08.726Z,100751.74
2018-12-10T11:32:34.804Z,100756.92
2018-12-10T11:35:00.816Z,100748.31
2018-12-10T11:37:26.728Z,100737.00
2018-12-10T11:39:52.672Z,100737.31
2018-12-10T11:42:18.682Z,100732.34
2018-12-10T11:44:44.721Z,100729.34
2018-12-10T11:47:13.175Z,100725.06
2018-12-10T11:49:39.743Z,100727.86
2018-12-10T11:52:05.744Z,100725.88
2018-12-10T11:54:31.802Z,100721.46
2018-12-10T11:56:57.881Z,100713.20
2018-12-10T11:59:23.840Z,100712.67
2018-12-10T12:01:49.941Z,100708.55
2018-12-10T12:04:16.077Z,100713.56
2018-12-10T12:06:42.080Z,100721.63
2018-12-10T12:09:08.021Z,100729.13
2018-12-10T12:11:34.028Z,100745.74
2018-12-10T12:14:00.060Z,100755.52
2018-12-10T12:16:26.069Z,100759.11
2018-12-10T12:18:52.025Z,100765.75
2018-12-10T12:21:18.017Z,100778.02
2018-12-10T12:23:44.061Z,100771.63
2018-12-10T12:26:10.060Z,100742.80
2018-12-10T12:28:36.008Z,100723.12
2018-12-10T12:31:02.213Z,100723.67
2018-12-10T12:33:28.254Z,100696.92
2018-12-10T12:35:54.376Z,100714.52
2018-12-10T12:38:20.385Z,100697.64
2018-12-10T12:40:46.432Z,100685.18
2018-12-10T12:43:16.086Z,100689.64
2018-12-10T12:45:40.416Z,100701.13
2018-12-10T12:48:06.416Z,100700.81
2018-12-10T12:50:32.357Z,100711.41
2018-12-10T12:52:58.372Z,100708.77
2018-12-10T12:55:24.507Z,100705.34
2018-12-10T12:57:50.617Z,100713.14
2018-12-10T13:00:16.652Z,100712.19
2018-12-10T13:02:42.665Z,100709.17
2018-12-10T13:05:08.936Z,100704.84
2018-12-10T13:07:34.908Z,100711.61
2018-12-10T13:10:00.872Z,100723.56
2018-12-10T13:12:26.848Z,100719.25
2018-12-10T13:14:52.782Z,100710.03
2018-12-10T13:17:18.828Z,100712.73
2018-12-10T13:19:44.917Z,100716.80
2018-12-10T13:22:10.874Z,100724.66
2018-12-10T13:24:36.856Z,100715.27
2018-12-10T13:27:02.812Z,100728.12
2018-12-10T13:29:31.312Z,100720.95
2018-12-10T13:31:56.797Z,100719.91
2018-12-10T13:34:22.805Z,100718.96
2018-12-10T13:36:48.844Z,100712.36
2018-12-10T13:39:14.853Z,100705.05
2018-12-10T13:41:40.988Z,100703.09
2018-12-10T13:44:06.996Z,100705.16
2018-12-10T13:46:33.050Z,100703.75
2018-12-10T13:48:59.032Z,100703.43
2018-12-10T13:51:24.987Z,100705.50
2018-12-10T13:53:50.984Z,100711.95
2018-12-10T13:56:17.081Z,100706.05
2018-12-10T13:58:43.193Z,100707.03
2018-12-10T14:01:09.152Z,100703.42
2018-12-10T14:03:35.197Z,100701.20
2018-12-10T14:06:01.214Z,100705.58
2018-12-10T14:08:27.252Z,100713.01
2018-12-10T14:10:53.240Z,100707.59
2018-12-10T14:13:19.195Z,100712.69
2018-12-10T14:15:45.200Z,100716.17
2018-12-10T14:18:11.232Z,100717.84
2018-12-10T14:20:37.248Z,100723.03
2018-12-10T14:23:03.389Z,100734.59
2018-12-10T14:25:29.380Z,100729.02
2018-12-10T14:27:55.328Z,100734.21
2018-12-10T14:30:21.337Z,100734.92
2018-12-10T14:32:47.381Z,100737.63
2018-12-10T14:35:13.380Z,100742.51
2018-12-10T14:37:39.420Z,100745.13
2018-12-10T14:40:05.440Z,100748.70
2018-12-10T14:42:31.444Z,100728.37
2018-12-10T14:44:57.400Z,100741.87
2018-12-10T14:47:23.384Z,100743.62
2018-12-10T14:49:49.326Z,100740.91
2018-12-10T14:52:15.332Z,100732.78
2018-12-10T14:54:41.368Z,100735.98
2018-12-10T14:57:07.380Z,100746.01
2018-12-10T14:59:33.424Z,100738.05
2018-12-10T15:01:59.420Z,100742.43
2018-12-10T15:04:25.376Z,100742.34
2018-12-10T15:06:51.372Z,100743.38
2018-12-10T15:09:17.831Z,100746.02
2018-12-10T15:11:43.813Z,100736.54
2018-12-10T15:14:09.764Z,100738.37
2018-12-10T15:16:35.864Z,100741.32
2018-12-10T15:19:01.809Z,100738.98
2018-12-10T15:21:27.811Z,100733.66
2018-12-10T15:23:53.778Z,100731.02
2018-12-10T15:26:19.857Z,100737.08
2018-12-10T15:28:45.890Z,100739.33
2018-12-10T15:31:11.924Z,100739.07
2018-12-10T15:33:37.937Z,100743.39
2018-12-10T15:36:03.968Z,100750.39
2018-12-10T15:38:29.968Z,100743.77
2018-12-10T15:40:55.911Z,100743.39
2018-12-10T15:43:22.024Z,100749.11
2018-12-10T15:45:48.056Z,100739.57
2018-12-10T15:48:14.069Z,100734.31
2018-12-10T15:50:40.130Z,100736.13
2018-12-10T15:53:06.109Z,100732.55
2018-12-10T15:55:32.064Z,100729.03
2018-12-10T15:57:58.156Z,100732.48
2018-12-10T16:00:24.200Z,100729.77
2018-12-10T16:02:50.210Z,100728.65
2018-12-10T16:05:16.252Z,100731.52
2018-12-10T16:07:43.072Z,100723.23
2018-12-10T16:10:09.012Z,100723.94
2018-12-10T16:12:35.056Z,100724.91
2018-12-10T16:15:01.044Z,100716.36
2018-12-10T16:17:27.084Z,100727.20
2018-12-10T16:19:53.181Z,100735.75
2018-12-10T16:22:19.121Z,100742.11
2018-12-10T16:24:45.125Z,100736.20
2018-12-10T16:27:11.069Z,100733.14
2018-12-10T16:29:37.068Z,100739.37
2018-12-10T16:32:03.051Z,100736.02
2018-12-10T16:34:29.113Z,100740.53
2018-12-10T16:36:55.068Z,100736.47
2018-12-10T16:39:21.065Z,100734.02
2018-12-10T16:41:47.103Z,100732.17
2018-12-10T16:44:13.212Z,100730.49
2018-12-10T16:46:39.268Z,100728.91
2018-12-10T16:49:05.261Z,100729.20
2018-12-10T16:51:31.304Z,100738.14
2018-12-10T16:53:57.301Z,100744.53
2018-12-10T16:56:23.352Z,100737.82
2018-12-10T16:58:49.344Z,100738.63
2018-12-10T17:01:15.488Z,100731.84
2018-12-10T17:03:41.492Z,100733.91
2018-12-10T17:06:07.433Z,100742.86
2018-12-10T17:08:33.440Z,100743.63
2018-12-10T17:10:59.513Z,100736.56
2018-12-10T17:13:25.488Z,100735.75
2018-12-10T17:15:51.508Z,100744.70
2018-12-10T17:18:17.553Z,100744.83
2018-12-10T17:20:43.561Z,100739.88
2018-12-10T17:23:09.599Z,100740.14
2018-12-10T17:25:35.705Z,100724.97
2018-12-10T17:28:01.769Z,100726.80
2018-12-10T17:30:27.852Z,100738.14
2018-12-10T17:32:53.896Z,100736.84
2018-12-10T17:35:19.905Z,100733.27
2018-12-10T17:37:45.949Z,100743.30
2018-12-10T17:40:11.944Z,100739.17
2018-12-10T17:42:38.010Z,100751.41
2018-12-10T17:45:05.052Z,100751.27
2018-12-10T17:47:31.067Z,100750.30
2018-12-10T17:49:57.072Z,100746.56
2018-12-10T17:52:23.114Z,100750.08
2018-12-10T17:54:49.226Z,100746.33
2018-12-10T17:57:15.258Z,100751.34
2018-12-10T17:59:41.257Z,100751.11
2018-12-10T18:02:07.300Z,100746.49
2018-12-10T18:04:33.300Z,100764.28
2018-12-10T18:06:59.354Z,100767.31
2018-12-10T18:09:25.345Z,100777.20
2018-12-10T18:11:51.368Z,100772.55
2018-12-10T18:14:17.416Z,100772.64
2018-12-10T18:16:43.412Z,100757.24
2018-12-10T18:19:09.356Z,100763.80
2018-12-10T18:21:35.360Z,100760.28
2018-12-10T18:24:01.412Z,100767.87
2018-12-10T18:26:27.406Z,100761.56
2018-12-10T18:28:53.457Z,100758.60
2018-12-10T18:31:19.560Z,100766.67
2018-12-10T18:33:45.593Z,100767.28
2018-12-10T18:36:11.592Z,100773.30
2018-12-10T18:38:37.556Z,100781.81
2018-12-10T18:41:03.645Z,100784.62
2018-12-10T18:43:29.792Z,100781.98
2018-12-10T18:45:55.792Z,100780.95
2018-12-10T18:48:21.834Z,100779.91
2018-12-10T18:50:47.964Z,100781.53
2018-12-10T18:53:14.088Z,100783.34
2018-12-10T18:55:40.084Z,100788.86
2018-12-10T18:58:06.028Z,100789.18
2018-12-10T19:00:32.033Z,100794.67
2018-12-10T19:02:58.084Z,100798.52
2018-12-10T19:05:24.183Z,100800.19
2018-12-10T19:07:50.245Z,100798.67
2018-12-10T19:10:16.176Z,100805.55
2018-12-10T19:12:42.149Z,100811.61
2018-12-10T19:15:08.312Z,100810.63
2018-12-10T19:17:34.336Z,100816.21
2018-12-10T19:20:00.340Z,100827.15
2018-12-10T19:22:26.366Z,100823.41
2018-12-10T19:24:52.488Z,100832.92
2018-12-10T19:27:18.502Z,100840.11
2018-12-10T19:29:44.539Z,100844.78
2018-12-10T19:32:10.549Z,100848.94
2018-12-10T19:34:36.600Z,100849.57
2018-12-10T19:37:02.592Z,100846.38
2018-12-10T19:39:28.629Z,100849.17
2018-12-10T19:41:54.631Z,100844.67
2018-12-10T19:44:20.668Z,100846.43
2018-12-10T19:46:46.672Z,100844.81
2018-12-10T19:49:13.589Z,100851.77
2018-12-10T19:51:39.856Z,100858.53
2018-12-10T19:54:05.895Z,100865.59
2018-12-10T19:56:31.997Z,100867.04
2018-12-10T19:58:58.152Z,100862.97
2018-12-10T20:01:24.140Z,100869.34
2018-12-10T20:03:50.089Z,100865.91
2018-12-10T20:06:16.187Z,100865.65
2018-12-10T20:08:42.149Z,100867.31
2018-12-10T20:11:08.136Z,100873.59
2018-12-10T20:13:34.158Z,100880.68
2018-12-10T20:16:00.198Z,100881.08
2018-12-10T20:18:26.207Z,100887.28
2018-12-10T20:20:52.253Z,100885.52
2018-12-10T20:23:18.249Z,100883.12
2018-12-10T20:25:44.294Z,100884.23
2018-12-10T20:28:10.295Z,100886.45
2018-12-10T20:30:36.452Z,100881.35
2018-12-10T20:33:02.558Z,100893.30
2018-12-10T20:35:28.593Z,100896.88
2018-12-10T20:37:54.621Z,100890.16
2018-12-10T20:40:20.744Z,100897.81
2018-12-10T20:42:46.741Z,100895.65
2018-12-10T20:45:12.883Z,100898.59
2018-12-10T20:47:38.888Z,100895.57
2018-12-10T20:50:04.952Z,100897.55
2018-12-10T20:52:30.936Z,100895.44
2018-12-10T20:54:56.984Z,100898.53
2018-12-10T20:57:22.980Z,100898.89
2018-12-10T20:59:49.024Z,100903.27
2018-12-10T21:02:15.024Z,100904.94
2018-12-10T21:04:41.072Z,100900.14
2018-12-10T21:07:07.077Z,100911.52
2018-12-10T21:09:33.118Z,100906.19
2018-12-10T21:11:59.122Z,100901.67
2018-12-10T21:14:25.249Z,100907.70
2018-12-10T21:16:51.289Z,100909.87
2018-12-10T21:19:17.393Z,100909.38
2018-12-10T21:21:43.436Z,100911.34
2018-12-10T21:24:09.436Z,100919.47
2018-12-10T21:26:35.660Z,100919.35
2018-12-10T21:29:01.585Z,100929.06
2018-12-10T21:31:27.732Z,100926.66
2018-12-10T21:33:53.737Z,100923.77
2018-12-10T21:36:19.785Z,100928.94
2018-12-10T21:38:45.904Z,100925.97
2018-12-10T21:41:11.929Z,100929.30
2018-12-10T21:43:37.937Z,100929.91
2018-12-10T21:46:03.979Z,100927.20
2018-12-10T21:48:30.096Z,100924.27
2018-12-10T21:50:56.117Z,100924.00
2018-12-10T21:53:22.120Z,100920.33
2018-12-10T21:55:48.056Z,100914.65
2018-12-10T21:58:14.069Z,100913.91
2018-12-10T22:00:40.104Z,100915.84
2018-12-10T22:03:06.112Z,100908.50
2018-12-10T22:05:32.053Z,100914.30
2018-12-10T22:07:58.052Z,100913.25
2018-12-10T22:10:23.971Z,100914.34
2018-12-10T22:12:50.017Z,100915.22
2018-12-10T22:15:16.025Z,100906.03
2018-12-10T22:17:42.068Z,100908.50
2018-12-10T22:20:08.077Z,100916.11
2018-12-10T22:22:34.116Z,100915.88
2018-12-10T22:25:00.119Z,100924.00
2018-12-10T22:27:26.165Z,100928.36
2018-12-10T22:29:52.160Z,100931.34
2018-12-10T22:32:18.200Z,100931.07
2018-12-10T22:34:44.210Z,100930.84
2018-12-10T22:37:10.348Z,100934.16
2018-12-10T22:39:36.348Z,100943.34
2018-12-10T22:42:02.293Z,100938.55
2018-12-10T22:44:28.296Z,100939.05
2018-12-10T22:46:54.236Z,100943.96
2018-12-10T22:49:20.249Z,100947.78
2018-12-10T22:51:46.284Z,100952.14
2018-12-10T22:54:12.287Z,100949.48
2018-12-10T22:56:38.433Z,100949.24
2018-12-10T22:59:04.431Z,100957.89
2018-12-10T23:01:30.372Z,100959.55
2018-12-10T23:03:56.372Z,100960.91
2018-12-10T23:06:22.324Z,100960.40
2018-12-10T23:08:48.323Z,100952.36
2018-12-10T23:11:14.352Z,100963.17
2018-12-10T23:13:40.388Z,100958.61
2018-12-10T23:16:06.401Z,100967.30
2018-12-10T23:18:32.464Z,100967.33
2018-12-10T23:20:58.544Z,100970.03
2018-12-10T23:23:24.589Z,100972.80
2018-12-10T23:25:50.704Z,100969.83
2018-12-10T23:28:16.740Z,100972.53
2018-12-10T23:30:42.731Z,100977.44
2018-12-10T23:33:08.677Z,100968.84
2018-12-10T23:35:34.684Z,100973.75
2018-12-10T23:38:00.732Z,100974.29
2018-12-10T23:40:26.728Z,100974.05
2018-12-10T23:42:52.771Z,100986.52
2018-12-10T23:45:18.876Z,100992.47
2018-12-10T23:47:44.920Z,100984.66
2018-12-10T23:50:10.929Z,100984.96
2018-12-10T23:52:36.956Z,100989.86
2018-12-10T23:55:02.976Z,100986.37
2018-12-10T23:57:28.985Z,100995.03
2018-12-10T23:59:54.932Z,100993.70
